createdAt,value
2018-06-08T00:00:31.951Z,4.10
2018-06-08T00:03:05.977Z,2.73
2018-06-08T00:05:42.294Z,5.30
2018-06-08T00:08:18.379Z,2.12
2018-06-08T00:10:54.311Z,2.00
2018-06-08T00:13:28.802Z,3.53
2018-06-08T00:16:03.176Z,2.87
2018-06-08T00:18:37.326Z,2.62
2018-06-08T00:21:12.643Z,4.27
2018-06-08T00:23:46.182Z,2.30
2018-06-08T00:26:21.743Z,3.37
2018-06-08T00:28:56.433Z,3.27
2018-06-08T00:31:32.112Z,2.70
2018-06-08T00:34:05.776Z,2.63
2018-06-08T00:36:42.261Z,3.83
2018-06-08T00:39:16.906Z,2.67
2018-06-08T00:41:51.902Z,3.07
2018-06-08T00:44:26.612Z,5.10
2018-06-08T00:47:01.262Z,2.45
2018-06-08T00:49:36.094Z,3.63
2018-06-08T00:52:12.758Z,3.03
2018-06-08T00:54:48.838Z,2.17
2018-06-08T00:57:23.579Z,2.30
2018-06-08T00:59:57.588Z,3.10
2018-06-08T01:02:31.775Z,4.47
2018-06-08T01:05:06.280Z,4.33
2018-06-08T01:07:41.220Z,4.00
2018-06-08T01:10:15.441Z,4.05
2018-06-08T01:12:49.487Z,4.80
2018-06-08T01:15:24.055Z,3.10
2018-06-08T01:17:56.156Z,3.73
2018-06-08T01:20:30.338Z,4.47
2018-06-08T01:23:04.597Z,2.93
2018-06-08T01:25:38.504Z,3.33
2018-06-08T01:28:12.713Z,2.67
2018-06-08T01:30:47.530Z,2.50
2018-06-08T01:33:21.488Z,3.10
2018-06-08T01:35:55.557Z,1.97
2018-06-08T01:38:29.803Z,6.70
2018-06-08T01:41:04.157Z,5.07
2018-06-08T01:43:38.060Z,5.13
2018-06-08T01:46:11.994Z,2.80
2018-06-08T01:48:44.761Z,3.73
2018-06-08T01:51:17.335Z,4.63
2018-06-08T01:53:51.766Z,3.03
2018-06-08T01:56:25.273Z,6.25
2018-06-08T01:58:59.495Z,3.72
2018-06-08T02:01:33.721Z,5.33
2018-06-08T02:04:08.261Z,6.92
2018-06-08T02:06:42.425Z,5.20
2018-06-08T02:09:15.491Z,6.77
2018-06-08T02:11:49.912Z,3.00
2018-06-08T02:14:25.461Z,3.80
2018-06-08T02:16:59.798Z,4.90
2018-06-08T02:19:33.923Z,3.67
2018-06-08T02:22:08.434Z,5.27
2018-06-08T02:24:42.123Z,5.03
2018-06-08T02:27:14.580Z,8.23
2018-06-08T02:51:35.460Z,3.30
2018-06-08T02:54:10.006Z,5.35
2018-06-08T02:56:47.968Z,3.47
2018-06-08T02:59:20.169Z,2.93
2018-06-08T03:01:54.236Z,4.80
2018-06-08T03:04:28.532Z,3.73
2018-06-08T03:07:03.249Z,3.90
2018-06-08T03:09:37.478Z,5.23
2018-06-08T03:12:11.758Z,7.57
2018-06-08T03:14:45.634Z,2.92
2018-06-08T03:17:19.646Z,3.25
2018-06-08T03:19:53.568Z,3.87
2018-06-08T03:22:28.074Z,5.50
2018-06-08T03:25:02.354Z,3.57
2018-06-08T03:27:35.993Z,4.40
2018-06-08T03:30:08.514Z,3.80
2018-06-08T03:32:42.406Z,3.73
2018-06-08T03:35:16.664Z,4.63
2018-06-08T03:37:50.765Z,2.97
2018-06-08T03:40:25.013Z,2.65
2018-06-08T03:42:57.603Z,2.92
2018-06-08T03:45:29.972Z,2.75
2018-06-08T03:51:39.022Z,4.27
2018-06-08T03:54:13.172Z,2.97
2018-06-08T03:56:50.249Z,3.12
2018-06-08T03:59:26.172Z,2.70
2018-06-08T04:02:00.310Z,3.33
2018-06-08T04:04:34.642Z,3.52
2018-06-08T04:07:09.568Z,5.40
2018-06-08T04:09:43.583Z,3.15
2018-06-08T04:12:18.431Z,1.87
2018-06-08T04:14:52.413Z,2.37
2018-06-08T04:17:26.889Z,2.17
2018-06-08T04:19:59.829Z,2.40
2018-06-08T04:22:33.515Z,2.93
2018-06-08T04:25:08.550Z,3.23
2018-06-08T04:27:42.722Z,2.72
2018-06-08T04:30:15.117Z,3.43
2018-06-08T04:32:49.984Z,2.12
2018-06-08T04:35:25.249Z,3.13
2018-06-08T04:37:59.312Z,2.80
2018-06-08T04:40:33.921Z,1.53
2018-06-08T04:43:08.104Z,3.10
2018-06-08T04:45:42.495Z,1.90
2018-06-08T04:48:16.323Z,2.67
2018-06-08T04:50:50.304Z,2.57
2018-06-08T04:53:24.124Z,0.80
2018-06-08T04:55:58.195Z,1.33
2018-06-08T04:58:32.172Z,4.00
2018-06-08T05:01:08.711Z,7.62
2018-06-08T05:03:43.063Z,9.73
2018-06-08T05:06:17.189Z,7.30
2018-06-08T05:08:51.090Z,5.33
2018-06-08T05:11:25.282Z,6.73
2018-06-08T05:13:59.298Z,2.63
2018-06-08T05:16:35.236Z,3.60
2018-06-08T05:19:09.303Z,3.90
2018-06-08T05:21:44.017Z,3.58
2018-06-08T05:24:16.612Z,4.10
2018-06-08T05:26:49.545Z,2.57
2018-06-08T05:29:23.297Z,1.17
2018-06-08T05:31:58.511Z,2.27
2018-06-08T05:34:33.959Z,1.70
2018-06-08T05:37:08.192Z,2.40
2018-06-08T05:39:40.713Z,2.60
2018-06-08T05:42:15.508Z,2.43
2018-06-08T05:44:49.660Z,1.03
2018-06-08T05:47:23.918Z,1.98
2018-06-08T05:49:57.929Z,2.47
2018-06-08T05:52:32.117Z,4.87
2018-06-08T05:55:06.082Z,3.07
2018-06-08T05:57:41.285Z,1.40
2018-06-08T06:00:15.024Z,2.43
2018-06-08T06:02:50.249Z,1.77
2018-06-08T06:05:22.734Z,2.60
2018-06-08T06:07:56.249Z,6.87
2018-06-08T06:10:30.591Z,3.70
2018-06-08T06:13:05.572Z,3.23
2018-06-08T06:15:39.801Z,3.17
2018-06-08T06:18:14.057Z,2.87
2018-06-08T06:20:48.294Z,3.03
2018-06-08T06:23:22.403Z,3.23
2018-06-08T06:25:56.583Z,2.98
2018-06-08T06:28:30.999Z,5.03
2018-06-08T06:31:04.779Z,3.03
2018-06-08T06:33:39.013Z,3.93
2018-06-08T06:36:13.063Z,2.47
2018-06-08T06:38:47.224Z,2.00
2018-06-08T06:41:21.822Z,2.13
2018-06-08T06:43:55.562Z,2.20
2018-06-08T06:46:28.047Z,2.33
2018-06-08T06:49:02.268Z,1.27
2018-06-08T06:51:36.298Z,1.57
2018-06-08T06:54:11.091Z,5.70
2018-06-08T06:56:45.293Z,1.40
2018-06-08T06:59:32.133Z,1.17
2018-06-08T07:02:06.056Z,3.10
2018-06-08T07:04:40.447Z,2.35
2018-06-08T07:07:12.806Z,2.03
2018-06-08T07:09:46.870Z,1.53
2018-06-08T07:12:21.186Z,2.37
2018-06-08T07:14:55.464Z,2.95
2018-06-08T07:17:29.436Z,2.60
2018-06-08T07:20:03.564Z,3.57
2018-06-08T07:22:38.557Z,3.60
2018-06-08T07:25:12.799Z,2.70
2018-06-08T07:27:46.774Z,3.23
2018-06-08T07:30:21.321Z,2.90
2018-06-08T07:32:55.440Z,3.37
2018-06-08T07:35:30.014Z,3.00
2018-06-08T07:38:02.546Z,1.83
2018-06-08T07:40:36.638Z,2.87
2018-06-08T07:43:11.155Z,3.00
2018-06-08T07:45:45.285Z,2.93
2018-06-08T07:48:20.052Z,5.60
2018-06-08T07:50:54.025Z,2.97
2018-06-08T07:53:28.385Z,2.13
2018-06-08T07:56:02.445Z,2.87
2018-06-08T07:58:36.562Z,2.17
2018-06-08T08:01:10.171Z,2.67
2018-06-08T08:03:44.474Z,3.50
2018-06-08T08:06:19.617Z,2.10
2018-06-08T08:08:53.573Z,2.87
2018-06-08T08:11:27.852Z,3.33
2018-06-08T08:14:02.370Z,3.33
2018-06-08T08:16:36.693Z,2.67
2018-06-08T08:19:11.699Z,1.90
2018-06-08T08:21:45.544Z,1.97
2018-06-08T08:24:19.866Z,2.30
2018-06-08T08:26:53.829Z,2.50
2018-06-08T08:29:26.298Z,1.70
2018-06-08T08:32:00.257Z,1.93
2018-06-08T08:34:34.416Z,1.27
2018-06-08T08:37:08.377Z,1.40
2018-06-08T08:51:36.860Z,2.17
2018-06-08T08:54:10.969Z,1.40
2018-06-08T08:56:45.476Z,2.75
2018-06-08T08:59:19.603Z,3.27
2018-06-08T09:01:54.418Z,3.30
2018-06-08T09:04:28.487Z,3.33
2018-06-08T09:07:04.424Z,1.30
2018-06-08T09:09:38.700Z,1.20
2018-06-08T09:12:12.734Z,2.20
2018-06-08T09:14:47.067Z,1.10
2018-06-08T09:17:21.243Z,2.27
2018-06-08T09:19:54.039Z,0.60
2018-06-08T09:22:28.204Z,1.17
2018-06-08T09:25:02.063Z,0.88
2018-06-08T09:27:36.597Z,1.20
2018-06-08T09:30:10.540Z,1.13
2018-06-08T09:32:45.035Z,2.43
2018-06-08T09:35:19.363Z,1.17
2018-06-08T09:37:53.606Z,1.13
2018-06-08T09:40:28.881Z,1.43
2018-06-08T09:43:01.096Z,1.62
2018-06-08T09:45:36.319Z,1.50
2018-06-08T09:48:10.580Z,0.60
2018-06-08T09:50:44.561Z,1.07
2018-06-08T09:53:18.206Z,3.30
2018-06-08T09:55:52.716Z,1.70
2018-06-08T09:58:26.987Z,0.77
2018-06-08T10:01:01.297Z,1.00
2018-06-08T10:03:35.606Z,0.90
2018-06-08T10:06:09.806Z,1.90
2018-06-08T10:08:44.624Z,1.10
2018-06-08T10:11:18.787Z,1.07
2018-06-08T10:13:52.866Z,1.75
2018-06-08T10:16:27.083Z,0.70
2018-06-08T10:19:01.321Z,0.77
2018-06-08T10:21:35.897Z,0.50
2018-06-08T10:24:10.115Z,1.33
2018-06-08T10:26:44.270Z,1.73
2018-06-08T10:29:16.960Z,0.57
2018-06-08T10:31:51.028Z,1.10
2018-06-08T10:34:25.469Z,0.42
2018-06-08T10:36:59.807Z,0.50
2018-06-08T10:39:33.223Z,0.68
2018-06-08T10:42:08.162Z,1.10
2018-06-08T10:44:42.090Z,0.83
2018-06-08T10:47:17.040Z,1.23
2018-06-08T10:49:52.292Z,0.93
2018-06-08T10:52:26.786Z,0.53
2018-06-08T10:55:00.950Z,0.70
2018-06-08T10:57:34.761Z,1.02
2018-06-08T11:00:10.232Z,0.77
2018-06-08T11:02:44.346Z,0.80
2018-06-08T11:05:18.712Z,0.62
2018-06-08T11:07:53.936Z,1.17
2018-06-08T11:10:28.483Z,0.50
2018-06-08T11:13:03.241Z,0.53
2018-06-08T11:15:37.485Z,0.67
2018-06-08T11:18:13.194Z,0.80
2018-06-08T11:20:47.716Z,0.90
2018-06-08T11:23:21.674Z,0.30
2018-06-08T11:25:55.678Z,1.40
2018-06-08T11:28:30.515Z,0.80
2018-06-08T11:31:04.624Z,1.15
2018-06-08T11:33:39.348Z,2.15
2018-06-08T11:36:14.040Z,1.73
2018-06-08T11:38:47.212Z,2.50
2018-06-08T11:41:21.561Z,1.43
2018-06-08T11:43:56.167Z,0.87
2018-06-08T11:46:32.465Z,0.70
2018-06-08T11:49:06.720Z,0.60
2018-06-08T11:51:40.893Z,0.73
2018-06-08T11:54:15.284Z,2.37
2018-06-08T11:56:47.954Z,0.70
2018-06-08T11:59:22.120Z,0.95
2018-06-08T12:01:56.037Z,2.13
2018-06-08T12:04:30.376Z,0.73
2018-06-08T12:07:04.655Z,0.40
2018-06-08T12:09:38.957Z,0.40
2018-06-08T12:12:14.193Z,1.60
2018-06-08T12:14:46.873Z,2.20
2018-06-08T12:17:20.971Z,0.70
2018-06-08T12:19:54.950Z,1.13
2018-06-08T12:22:29.114Z,1.72
2018-06-08T12:25:03.456Z,2.90
2018-06-08T12:27:37.945Z,0.90
2018-06-08T12:30:10.512Z,1.00
2018-06-08T12:32:44.765Z,1.33
2018-06-08T12:35:19.599Z,1.30
2018-06-08T12:37:53.971Z,1.30
2018-06-08T12:40:28.367Z,2.40
2018-06-08T12:43:02.787Z,1.67
2018-06-08T12:45:36.912Z,1.57
2018-06-08T12:48:12.914Z,1.17
2018-06-08T12:50:47.253Z,0.70
2018-06-08T12:53:22.056Z,1.57
2018-06-08T12:55:57.112Z,0.73
2018-06-08T12:58:31.068Z,1.63
2018-06-08T13:01:05.274Z,1.30
2018-06-08T13:03:40.165Z,3.03
2018-06-08T13:06:14.682Z,1.77
2018-06-08T13:08:48.225Z,0.80
2018-06-08T13:11:22.220Z,1.33
2018-06-08T13:13:58.241Z,1.67
2018-06-08T13:16:32.582Z,1.43
2018-06-08T13:19:06.517Z,1.90
2018-06-08T13:21:40.487Z,3.00
2018-06-08T13:24:13.278Z,2.33
2018-06-08T13:26:47.328Z,0.80
2018-06-08T13:29:21.159Z,1.20
2018-06-08T13:31:55.391Z,3.80
2018-06-08T13:34:29.825Z,1.80
2018-06-08T13:37:04.218Z,2.07
2018-06-08T13:39:38.447Z,1.20
2018-06-08T13:42:12.613Z,2.07
2018-06-08T13:44:47.226Z,1.80
2018-06-08T13:47:21.410Z,1.77
2018-06-08T13:49:54.013Z,3.73
2018-06-08T13:52:28.510Z,1.43
2018-06-08T13:55:02.704Z,1.20
2018-06-08T13:57:36.947Z,1.13
2018-06-08T14:00:11.346Z,2.00
2018-06-08T14:02:44.192Z,1.60
2018-06-08T14:05:18.284Z,5.20
2018-06-08T14:07:52.464Z,1.67
2018-06-08T14:10:26.807Z,1.65
2018-06-08T14:12:59.111Z,3.20
2018-06-08T14:15:34.245Z,1.67
2018-06-08T14:18:08.419Z,2.37
2018-06-08T14:20:42.589Z,2.90
2018-06-08T14:23:17.003Z,2.43
2018-06-08T14:25:51.330Z,2.00
2018-06-08T14:28:25.291Z,1.73
2018-06-08T14:30:59.512Z,2.90
2018-06-08T14:33:34.427Z,2.07
2018-06-08T14:36:08.292Z,2.40
2018-06-08T14:38:42.264Z,1.90
2018-06-08T14:41:15.171Z,3.05
2018-06-08T14:43:49.573Z,2.77
2018-06-08T14:51:37.305Z,2.37
2018-06-08T14:54:11.243Z,2.00
2018-06-08T14:56:43.738Z,2.53
2018-06-08T14:59:18.189Z,2.20
2018-06-08T15:01:50.861Z,1.63
2018-06-08T15:04:25.137Z,2.02
2018-06-08T15:06:57.588Z,1.10
2018-06-08T15:09:31.365Z,2.27
2018-06-08T15:12:05.672Z,4.07
2018-06-08T15:14:39.882Z,3.10
2018-06-08T15:17:14.579Z,3.17
2018-06-08T15:19:49.215Z,2.53
2018-06-08T15:22:23.526Z,2.25
2018-06-08T15:24:56.208Z,1.67
2018-06-08T15:27:30.745Z,2.57
2018-06-08T15:30:04.979Z,2.13
2018-06-08T15:32:39.393Z,2.70
2018-06-08T15:35:13.641Z,5.37
2018-06-08T15:37:47.884Z,1.50
2018-06-08T15:40:20.564Z,3.87
2018-06-08T15:42:53.044Z,4.57
2018-06-08T15:45:25.647Z,2.50
2018-06-08T15:48:00.013Z,2.83
2018-06-08T15:50:34.314Z,2.00
2018-06-08T15:53:08.935Z,3.37
2018-06-08T15:55:43.159Z,3.03
2018-06-08T15:58:18.146Z,2.00
2018-06-08T16:00:52.412Z,1.77
2018-06-08T16:03:26.583Z,1.60
2018-06-08T16:06:01.339Z,2.93
2018-06-08T16:08:35.242Z,2.97
2018-06-08T16:11:09.073Z,2.77
2018-06-08T16:13:44.511Z,1.77
2018-06-08T16:16:18.711Z,2.00
2018-06-08T16:18:54.200Z,3.30
2018-06-08T16:21:28.481Z,2.00
2018-06-08T16:24:03.058Z,2.60
2018-06-08T16:26:35.662Z,3.30
2018-06-08T16:29:09.861Z,4.03
2018-06-08T16:31:44.296Z,3.60
2018-06-08T16:34:18.412Z,3.17
2018-06-08T16:36:52.545Z,2.97
2018-06-08T16:39:26.742Z,3.52
2018-06-08T16:42:00.764Z,2.37
2018-06-08T16:44:35.855Z,2.80
2018-06-08T16:47:10.326Z,3.60
2018-06-08T16:49:44.637Z,3.93
2018-06-08T16:52:18.777Z,1.27
2018-06-08T16:54:52.768Z,1.37
2018-06-08T16:57:26.874Z,2.77
2018-06-08T17:00:01.645Z,2.33
2018-06-08T17:02:35.615Z,2.42
2018-06-08T17:05:09.954Z,2.37
2018-06-08T17:07:45.398Z,3.00
2018-06-08T17:10:20.581Z,1.70
2018-06-08T17:12:53.238Z,1.87
2018-06-08T17:15:27.679Z,2.70
2018-06-08T17:18:00.822Z,1.43
2018-06-08T17:20:34.960Z,2.10
2018-06-08T17:23:09.069Z,2.73
2018-06-08T17:25:43.185Z,2.30
2018-06-08T17:28:17.512Z,1.95
2018-06-08T17:30:52.291Z,4.23
2018-06-08T17:33:26.699Z,2.17
2018-06-08T17:36:00.898Z,3.43
2018-06-08T17:38:35.014Z,2.23
2018-06-08T17:41:08.945Z,1.53
2018-06-08T17:43:43.241Z,3.17
2018-06-08T17:46:17.384Z,2.07
2018-06-08T17:48:52.892Z,2.58
2018-06-08T17:51:27.418Z,2.10
2018-06-08T17:54:01.596Z,2.95
2018-06-08T17:56:36.122Z,2.00
2018-06-08T17:59:10.283Z,1.97
2018-06-08T18:01:44.304Z,2.52
2018-06-08T18:04:18.336Z,1.73
2018-06-08T18:06:52.527Z,2.47
2018-06-08T18:09:26.958Z,1.85
2018-06-08T18:12:01.469Z,1.70
2018-06-08T18:14:36.395Z,3.00
2018-06-08T18:17:10.741Z,3.07
2018-06-08T18:19:45.249Z,1.50
2018-06-08T18:22:22.102Z,2.75
2018-06-08T18:24:54.561Z,1.77
2018-06-08T18:27:29.146Z,1.87
2018-06-08T18:30:03.358Z,3.10
2018-06-08T18:32:37.480Z,4.00
2018-06-08T18:35:11.898Z,1.75
2018-06-08T18:37:46.414Z,1.27
2018-06-08T18:40:21.111Z,3.30
2018-06-08T18:42:53.550Z,2.03
2018-06-08T18:45:28.209Z,2.57
2018-06-08T18:48:02.209Z,2.53
2018-06-08T18:50:36.441Z,2.70
2018-06-08T18:53:10.904Z,1.12
2018-06-08T18:55:44.644Z,2.77
2018-06-08T18:58:19.457Z,3.53
2018-06-08T19:00:54.229Z,2.47
2018-06-08T19:03:28.421Z,3.10
2018-06-08T19:06:02.409Z,4.57
2018-06-08T19:08:36.566Z,3.73
2018-06-08T19:11:08.742Z,3.47
2018-06-08T19:13:42.721Z,3.13
2018-06-08T19:16:16.947Z,2.27
2018-06-08T19:18:51.461Z,2.20
2018-06-08T19:21:25.834Z,4.70
2018-06-08T19:24:07.181Z,6.37
2018-06-08T19:26:42.117Z,3.77
2018-06-08T19:29:15.922Z,3.40
2018-06-08T19:31:48.287Z,1.90
2018-06-08T19:34:22.591Z,4.13
2018-06-08T19:36:57.008Z,4.47
2018-06-08T19:39:31.433Z,1.90
2018-06-08T19:42:05.513Z,2.63
2018-06-08T19:44:39.519Z,4.22
2018-06-08T19:47:13.932Z,2.10
2018-06-08T19:49:47.623Z,3.42
2018-06-08T19:52:22.579Z,2.37
2018-06-08T19:54:56.673Z,2.67
2018-06-08T19:57:30.325Z,3.40
2018-06-08T20:00:17.356Z,1.83
2018-06-08T20:02:51.751Z,1.90
2018-06-08T20:05:26.348Z,3.43
2018-06-08T20:08:00.481Z,2.37
2018-06-08T20:10:34.795Z,3.80
2018-06-08T20:13:08.881Z,2.00
2018-06-08T20:15:42.770Z,2.83
2018-06-08T20:18:15.824Z,3.70
2018-06-08T20:20:49.910Z,2.23
2018-06-08T20:23:23.945Z,3.10
2018-06-08T20:25:59.316Z,2.80
2018-06-08T20:28:32.170Z,2.07
2018-06-08T20:31:06.407Z,4.03
2018-06-08T20:33:40.370Z,2.50
2018-06-08T20:36:14.693Z,4.90
2018-06-08T20:38:48.966Z,3.23
2018-06-08T20:41:21.459Z,2.10
2018-06-08T20:43:55.900Z,3.53
2018-06-08T20:46:30.138Z,4.87
2018-06-08T20:49:04.972Z,2.20
2018-06-08T20:51:39.127Z,2.73
2018-06-08T20:54:11.952Z,5.07
2018-06-08T20:56:46.213Z,3.27
2018-06-08T20:59:19.927Z,3.27
2018-06-08T21:01:54.660Z,4.17
2018-06-08T21:04:28.594Z,5.53
2018-06-08T21:07:03.303Z,3.83
2018-06-08T21:09:36.730Z,5.53
2018-06-08T21:12:11.176Z,5.07
2018-06-08T21:14:45.319Z,2.97
2018-06-08T21:17:19.591Z,3.37
2018-06-08T21:19:54.252Z,3.40
2018-06-08T21:22:28.690Z,4.17
2018-06-08T21:25:03.036Z,3.87
2018-06-08T21:27:37.677Z,4.83
2018-06-08T21:30:12.395Z,3.83
2018-06-08T21:32:46.475Z,5.23
2018-06-08T21:35:20.532Z,2.93
2018-06-08T21:37:54.772Z,3.07
2018-06-08T21:40:28.923Z,4.63
2018-06-08T21:43:01.428Z,4.60
2018-06-08T21:45:35.536Z,4.53
2018-06-08T21:48:09.244Z,4.60
2018-06-08T21:50:44.393Z,3.53
2018-06-08T21:53:18.561Z,2.93
2018-06-08T21:55:54.025Z,3.17
2018-06-08T21:58:29.056Z,3.33
2018-06-08T22:01:01.862Z,3.45
2018-06-08T22:03:36.730Z,2.30
2018-06-08T22:06:10.814Z,3.10
2018-06-08T22:08:45.134Z,4.77
2018-06-08T22:11:19.284Z,4.37
2018-06-08T22:13:53.594Z,2.83
2018-06-08T22:16:27.926Z,1.80
2018-06-08T22:19:02.063Z,2.77
2018-06-08T22:21:36.104Z,7.00
2018-06-08T22:24:10.317Z,4.87
2018-06-08T22:26:44.421Z,3.67
2018-06-08T22:29:19.475Z,3.23
2018-06-08T22:31:53.667Z,3.63
2018-06-08T22:34:28.214Z,2.77
2018-06-08T22:37:03.437Z,3.87
2018-06-08T22:39:37.761Z,4.23
2018-06-08T22:42:12.856Z,5.97
2018-06-08T22:44:46.905Z,4.93
2018-06-08T22:47:20.976Z,4.47
2018-06-08T22:49:55.770Z,4.10
2018-06-08T22:52:29.812Z,4.83
2018-06-08T22:55:03.888Z,4.60
2018-06-08T22:57:38.199Z,4.27
2018-06-08T23:00:12.813Z,3.93
2018-06-08T23:02:46.762Z,5.47
2018-06-08T23:05:21.030Z,4.70
2018-06-08T23:07:54.913Z,4.83
2018-06-08T23:10:29.274Z,8.70
2018-06-08T23:13:03.535Z,4.30
2018-06-08T23:15:37.887Z,4.67
2018-06-08T23:18:10.176Z,5.40
2018-06-08T23:20:44.322Z,4.30
2018-06-08T23:23:18.612Z,4.13
2018-06-08T23:25:53.098Z,5.93
2018-06-08T23:28:27.065Z,4.43
2018-06-08T23:31:02.296Z,5.93
2018-06-08T23:33:37.040Z,5.07
2018-06-08T23:36:10.990Z,6.23
2018-06-08T23:38:45.279Z,4.70
2018-06-08T23:41:19.271Z,5.92
2018-06-08T23:43:53.804Z,6.70
2018-06-08T23:46:28.114Z,5.77
2018-06-08T23:49:02.879Z,4.42
2018-06-08T23:51:36.614Z,4.80
2018-06-08T23:54:10.417Z,4.67
2018-06-08T23:56:42.857Z,7.07
2018-06-08T23:59:16.940Z,6.23
